sensor_id;sensor_type;location;lat;lon;timestamp;pressure;altitude;pressure_sealevel;temperature;humidity
50933;BME280;36921;49.006;9.292;2023-04-07T00:01:08;98835.63;;;5.62;100.00
50933;BME280;36921;49.006;9.292;2023-04-07T00:03:34;98839.31;;;5.61;100.00
50933;BME280;36921;49.006;9.292;2023-04-07T00:05:59;98817.69;;;5.46;100.00
50933;BME280;36921;49.006;9.292;2023-04-07T00:08:25;98842.00;;;5.53;100.00
50933;BME280;36921;49.006;9.292;2023-04-07T00:10:50;98852.41;;;5.64;100.00
50933;BME280;36921;49.006;9.292;2023-04-07T00:13:15;98840.81;;;5.63;100.00
50933;BME280;36921;49.006;9.292;2023-04-07T00:15:41;98826.91;;;5.60;100.00
50933;BME280;36921;49.006;9.292;2023-04-07T00:18:06;98832.59;;;5.57;100.00
50933;BME280;36921;49.006;9.292;2023-04-07T00:20:31;98815.69;;;5.48;100.00
50933;BME280;36921;49.006;9.292;2023-04-07T00:22:56;98821.53;;;5.52;100.00
50933;BME280;36921;49.006;9.292;2023-04-07T00:25:22;98819.69;;;5.52;100.00
50933;BME280;36921;49.006;9.292;2023-04-07T00:27:47;98830.59;;;5.59;100.00
50933;BME280;36921;49.006;9.292;2023-04-07T00:30:12;98828.25;;;5.56;100.00
50933;BME280;36921;49.006;9.292;2023-04-07T00:32:39;98781.34;;;5.27;100.00
50933;BME280;36921;49.006;9.292;2023-04-07T00:35:05;98800.06;;;5.52;100.00
50933;BME280;36921;49.006;9.292;2023-04-07T00:37:30;98788.66;;;5.49;100.00
50933;BME280;36921;49.006;9.292;2023-04-07T00:39:56;98816.50;;;5.57;100.00
50933;BME280;36921;49.006;9.292;2023-04-07T00:42:23;98800.06;;;5.52;100.00
50933;BME280;36921;49.006;9.292;2023-04-07T00:44:48;98783.31;;;5.41;100.00
50933;BME280;36921;49.006;9.292;2023-04-07T00:47:14;98784.31;;;5.48;100.00
50933;BME280;36921;49.006;9.292;2023-04-07T00:49:40;98803.09;;;5.57;100.00
50933;BME280;36921;49.006;9.292;2023-04-07T00:52:05;98779.66;;;5.42;100.00
50933;BME280;36921;49.006;9.292;2023-04-07T00:54:32;98763.22;;;5.29;100.00
50933;BME280;36921;49.006;9.292;2023-04-07T00:56:57;98781.78;;;5.55;100.00
50933;BME280;36921;49.006;9.292;2023-04-07T00:59:23;98790.00;;;5.62;100.00
50933;BME280;36921;49.006;9.292;2023-04-07T01:07:47;98778.94;;;5.57;100.00
50933;BME280;36921;49.006;9.292;2023-04-07T01:10:20;98776.91;;;5.59;100.00
50933;BME280;36921;49.006;9.292;2023-04-07T01:13:05;98772.22;;;5.61;100.00
50933;BME280;36921;49.006;9.292;2023-04-07T01:15:34;98760.81;;;5.59;100.00
50933;BME280;36921;49.006;9.292;2023-04-07T01:18:12;98742.53;;;5.54;100.00
50933;BME280;36921;49.006;9.292;2023-04-07T01:20:40;98727.31;;;5.46;100.00
50933;BME280;36921;49.006;9.292;2023-04-07T01:23:07;98722.28;;;5.43;100.00
50933;BME280;36921;49.006;9.292;2023-04-07T01:25:53;98737.34;;;5.53;100.00
50933;BME280;36921;49.006;9.292;2023-04-07T01:30:53;98740.53;;;5.56;100.00
50933;BME280;36921;49.006;9.292;2023-04-07T01:33:21;98747.41;;;5.59;100.00
50933;BME280;36921;49.006;9.292;2023-04-07T01:35:48;98745.22;;;5.54;100.00
50933;BME280;36921;49.006;9.292;2023-04-07T01:38:15;98713.44;;;5.35;100.00
50933;BME280;36921;49.006;9.292;2023-04-07T01:40:42;98731.00;;;5.45;100.00
50933;BME280;36921;49.006;9.292;2023-04-07T01:43:09;98713.09;;;5.38;100.00
50933;BME280;36921;49.006;9.292;2023-04-07T01:45:36;98693.81;;;5.26;100.00
50933;BME280;36921;49.006;9.292;2023-04-07T01:48:04;98717.75;;;5.44;100.00
50933;BME280;36921;49.006;9.292;2023-04-07T01:50:30;98719.56;;;5.52;100.00
50933;BME280;36921;49.006;9.292;2023-04-07T01:52:56;98718.06;;;5.49;100.00
50933;BME280;36921;49.006;9.292;2023-04-07T01:55:21;98707.19;;;5.51;100.00
50933;BME280;36921;49.006;9.292;2023-04-07T01:57:47;98699.44;;;5.56;100.00
50933;BME280;36921;49.006;9.292;2023-04-07T02:00:12;98715.88;;;5.61;100.00
50933;BME280;36921;49.006;9.292;2023-04-07T02:02:40;98666.47;;;5.39;100.00
50933;BME280;36921;49.006;9.292;2023-04-07T02:05:11;98725.50;;;5.78;100.00
50933;BME280;36921;49.006;9.292;2023-04-07T02:07:38;98728.53;;;5.75;100.00
50933;BME280;36921;49.006;9.292;2023-04-07T02:10:08;98712.00;;;5.63;100.00
50933;BME280;36921;49.006;9.292;2023-04-07T02:12:35;98725.03;;;5.75;100.00
50933;BME280;36921;49.006;9.292;2023-04-07T02:15:02;98705.09;;;5.69;100.00
50933;BME280;36921;49.006;9.292;2023-04-07T02:17:29;98715.78;;;5.77;100.00
50933;BME280;36921;49.006;9.292;2023-04-07T02:19:58;98690.38;;;5.57;100.00
50933;BME280;36921;49.006;9.292;2023-04-07T02:22:25;98673.19;;;5.35;100.00
50933;BME280;36921;49.006;9.292;2023-04-07T02:24:51;98694.94;;;5.48;100.00
50933;BME280;36921;49.006;9.292;2023-04-07T02:27:16;98697.44;;;5.49;100.00
50933;BME280;36921;49.006;9.292;2023-04-07T02:29:42;98688.22;;;5.52;100.00
50933;BME280;36921;49.006;9.292;2023-04-07T02:32:07;98670.63;;;5.41;100.00
50933;BME280;36921;49.006;9.292;2023-04-07T02:34:32;98662.44;;;5.43;100.00
50933;BME280;36921;49.006;9.292;2023-04-07T02:36:58;98683.19;;;5.49;100.00
50933;BME280;36921;49.006;9.292;2023-04-07T02:39:23;98661.28;;;5.37;100.00
50933;BME280;36921;49.006;9.292;2023-04-07T02:41:48;98668.28;;;5.46;100.00
50933;BME280;36921;49.006;9.292;2023-04-07T02:44:13;98677.81;;;5.49;100.00
50933;BME280;36921;49.006;9.292;2023-04-07T02:46:39;98688.84;;;5.62;100.00
50933;BME280;36921;49.006;9.292;2023-04-07T02:49:05;98683.97;;;5.66;100.00
50933;BME280;36921;49.006;9.292;2023-04-07T02:51:31;98663.88;;;5.54;100.00
50933;BME280;36921;49.006;9.292;2023-04-07T02:53:56;98651.78;;;5.66;100.00
50933;BME280;36921;49.006;9.292;2023-04-07T02:56:21;98664.16;;;5.67;100.00
50933;BME280;36921;49.006;9.292;2023-04-07T02:58:47;98655.44;;;5.65;100.00
50933;BME280;36921;49.006;9.292;2023-04-07T03:01:12;98673.81;;;5.76;100.00
50933;BME280;36921;49.006;9.292;2023-04-07T03:03:38;98691.09;;;5.82;100.00
50933;BME280;36921;49.006;9.292;2023-04-07T03:06:03;98656.47;;;5.64;100.00
50933;BME280;36921;49.006;9.292;2023-04-07T03:08:29;98660.75;;;5.73;100.00
50933;BME280;36921;49.006;9.292;2023-04-07T03:10:54;98659.41;;;5.77;100.00
50933;BME280;36921;49.006;9.292;2023-04-07T03:13:20;98663.28;;;5.75;100.00
50933;BME280;36921;49.006;9.292;2023-04-07T03:15:45;98654.41;;;5.74;100.00
50933;BME280;36921;49.006;9.292;2023-04-07T03:18:11;98648.69;;;5.77;100.00
50933;BME280;36921;49.006;9.292;2023-04-07T03:20:37;98636.50;;;5.66;100.00
50933;BME280;36921;49.006;9.292;2023-04-07T03:23:02;98643.00;;;5.72;100.00
50933;BME280;36921;49.006;9.292;2023-04-07T03:27:55;98667.06;;;5.88;100.00
50933;BME280;36921;49.006;9.292;2023-04-07T03:30:21;98651.16;;;5.79;100.00
50933;BME280;36921;49.006;9.292;2023-04-07T03:32:46;98642.81;;;5.74;100.00
50933;BME280;36921;49.006;9.292;2023-04-07T03:35:11;98656.69;;;5.85;100.00
50933;BME280;36921;49.006;9.292;2023-04-07T03:37:37;98660.69;;;5.89;100.00
50933;BME280;36921;49.006;9.292;2023-04-07T03:40:02;98652.34;;;5.84;100.00
50933;BME280;36921;49.006;9.292;2023-04-07T03:42:28;98644.75;;;5.88;100.00
50933;BME280;36921;49.006;9.292;2023-04-07T03:44:53;98644.91;;;5.95;100.00
50933;BME280;36921;49.006;9.292;2023-04-07T03:47:18;98645.03;;;6.01;100.00
50933;BME280;36921;49.006;9.292;2023-04-07T03:49:44;98642.03;;;5.96;100.00
50933;BME280;36921;49.006;9.292;2023-04-07T03:52:09;98650.25;;;5.95;100.00
50933;BME280;36921;49.006;9.292;2023-04-07T03:54:35;98642.53;;;5.91;100.00
50933;BME280;36921;49.006;9.292;2023-04-07T03:57:01;98643.09;;;5.87;100.00
50933;BME280;36921;49.006;9.292;2023-04-07T03:59:27;98648.09;;;5.90;100.00
50933;BME280;36921;49.006;9.292;2023-04-07T04:01:52;98644.28;;;5.84;100.00
50933;BME280;36921;49.006;9.292;2023-04-07T04:04:18;98658.03;;;5.81;100.00
50933;BME280;36921;49.006;9.292;2023-04-07T04:06:43;98648.84;;;5.76;100.00
50933;BME280;36921;49.006;9.292;2023-04-07T04:09:09;98649.03;;;5.74;100.00
50933;BME280;36921;49.006;9.292;2023-04-07T04:11:34;98653.75;;;5.72;100.00
50933;BME280;36921;49.006;9.292;2023-04-07T04:14:00;98648.53;;;5.70;100.00
50933;BME280;36921;49.006;9.292;2023-04-07T04:16:26;98645.38;;;5.67;100.00
50933;BME280;36921;49.006;9.292;2023-04-07T04:18:51;98646.19;;;5.67;100.00
50933;BME280;36921;49.006;9.292;2023-04-07T04:21:17;98638.16;;;5.67;100.00
50933;BME280;36921;49.006;9.292;2023-04-07T04:23:42;98641.50;;;5.69;100.00
50933;BME280;36921;49.006;9.292;2023-04-07T04:26:07;98652.59;;;5.66;100.00
50933;BME280;36921;49.006;9.292;2023-04-07T04:28:33;98646.03;;;5.69;100.00
50933;BME280;36921;49.006;9.292;2023-04-07T04:30:58;98647.03;;;5.68;100.00
50933;BME280;36921;49.006;9.292;2023-04-07T04:33:24;98644.91;;;5.63;100.00
50933;BME280;36921;49.006;9.292;2023-04-07T04:35:49;98645.41;;;5.59;100.00
50933;BME280;36921;49.006;9.292;2023-04-07T04:38:15;98649.97;;;5.58;100.00
50933;BME280;36921;49.006;9.292;2023-04-07T04:40:41;98652.66;;;5.58;100.00
50933;BME280;36921;49.006;9.292;2023-04-07T04:43:07;98643.25;;;5.54;100.00
50933;BME280;36921;49.006;9.292;2023-04-07T04:45:33;98643.72;;;5.58;100.00
50933;BME280;36921;49.006;9.292;2023-04-07T04:47:59;98647.75;;;5.62;100.00
50933;BME280;36921;49.006;9.292;2023-04-07T04:50:25;98641.19;;;5.64;100.00
50933;BME280;36921;49.006;9.292;2023-04-07T04:52:52;98645.41;;;5.59;100.00
50933;BME280;36921;49.006;9.292;2023-04-07T04:55:17;98639.75;;;5.54;100.00
50933;BME280;36921;49.006;9.292;2023-04-07T04:57:48;98636.22;;;5.53;100.00
50933;BME280;36921;49.006;9.292;2023-04-07T05:00:13;98645.09;;;5.54;100.00
50933;BME280;36921;49.006;9.292;2023-04-07T05:05:09;98624.63;;;5.61;100.00
50933;BME280;36921;49.006;9.292;2023-04-07T05:07:34;98641.31;;;5.71;100.00
50933;BME280;36921;49.006;9.292;2023-04-07T05:09:59;98634.06;;;5.80;100.00
50933;BME280;36921;49.006;9.292;2023-04-07T05:12:25;98650.47;;;5.85;100.00
50933;BME280;36921;49.006;9.292;2023-04-07T05:14:51;98639.25;;;5.81;100.00
50933;BME280;36921;49.006;9.292;2023-04-07T05:17:16;98625.50;;;5.76;100.00
50933;BME280;36921;49.006;9.292;2023-04-07T05:19:42;98649.09;;;5.89;100.00
50933;BME280;36921;49.006;9.292;2023-04-07T05:22:07;98609.88;;;5.57;100.00
50933;BME280;36921;49.006;9.292;2023-04-07T05:24:32;98639.97;;;5.75;100.00
50933;BME280;36921;49.006;9.292;2023-04-07T05:26:58;98611.84;;;5.63;100.00
50933;BME280;36921;49.006;9.292;2023-04-07T05:29:23;98625.41;;;5.69;100.00
50933;BME280;36921;49.006;9.292;2023-04-07T05:31:48;98609.69;;;5.58;100.00
50933;BME280;36921;49.006;9.292;2023-04-07T05:34:14;98647.34;;;5.73;100.00
50933;BME280;36921;49.006;9.292;2023-04-07T05:36:39;98628.25;;;5.68;100.00
50933;BME280;36921;49.006;9.292;2023-04-07T05:39:05;98628.84;;;5.78;100.00
50933;BME280;36921;49.006;9.292;2023-04-07T05:41:30;98631.38;;;5.80;100.00
50933;BME280;36921;49.006;9.292;2023-04-07T05:43:56;98640.19;;;5.97;100.00
50933;BME280;36921;49.006;9.292;2023-04-07T05:46:21;98622.59;;;5.94;100.00
50933;BME280;36921;49.006;9.292;2023-04-07T05:48:46;98627.06;;;6.02;100.00
50933;BME280;36921;49.006;9.292;2023-04-07T05:51:12;98598.94;;;5.89;100.00
50933;BME280;36921;49.006;9.292;2023-04-07T05:53:37;98624.97;;;6.12;100.00
50933;BME280;36921;49.006;9.292;2023-04-07T05:56:02;98621.03;;;6.23;100.00
50933;BME280;36921;49.006;9.292;2023-04-07T05:58:28;98625.22;;;6.25;100.00
50933;BME280;36921;49.006;9.292;2023-04-07T06:00:53;98629.22;;;6.29;100.00
50933;BME280;36921;49.006;9.292;2023-04-07T06:03:18;98634.44;;;6.46;100.00
50933;BME280;36921;49.006;9.292;2023-04-07T06:05:46;98634.00;;;6.42;100.00
50933;BME280;36921;49.006;9.292;2023-04-07T06:08:12;98638.63;;;6.48;100.00
50933;BME280;36921;49.006;9.292;2023-04-07T06:10:37;98638.09;;;6.53;100.00
50933;BME280;36921;49.006;9.292;2023-04-07T06:13:04;98620.56;;;6.57;100.00
50933;BME280;36921;49.006;9.292;2023-04-07T06:15:29;98634.78;;;6.80;100.00
50933;BME280;36921;49.006;9.292;2023-04-07T06:17:54;98619.97;;;6.85;100.00
50933;BME280;36921;49.006;9.292;2023-04-07T06:20:20;98631.50;;;7.08;100.00
50933;BME280;36921;49.006;9.292;2023-04-07T06:22:47;98635.59;;;7.34;100.00
50933;BME280;36921;49.006;9.292;2023-04-07T06:25:12;98620.16;;;7.28;100.00
50933;BME280;36921;49.006;9.292;2023-04-07T06:27:37;98619.44;;;7.34;100.00
50933;BME280;36921;49.006;9.292;2023-04-07T06:30:03;98624.41;;;7.52;100.00
50933;BME280;36921;49.006;9.292;2023-04-07T06:32:28;98629.50;;;7.46;100.00
50933;BME280;36921;49.006;9.292;2023-04-07T06:34:54;98633.50;;;7.51;100.00
50933;BME280;36921;49.006;9.292;2023-04-07T06:37:20;98622.19;;;7.55;100.00
50933;BME280;36921;49.006;9.292;2023-04-07T06:40:05;98616.84;;;7.62;100.00
50933;BME280;36921;49.006;9.292;2023-04-07T06:42:31;98624.66;;;7.72;100.00
50933;BME280;36921;49.006;9.292;2023-04-07T06:44:56;98610.00;;;7.59;100.00
50933;BME280;36921;49.006;9.292;2023-04-07T06:47:21;98598.50;;;7.65;100.00
50933;BME280;36921;49.006;9.292;2023-04-07T06:49:47;98624.91;;;7.77;100.00
50933;BME280;36921;49.006;9.292;2023-04-07T06:52:12;98607.09;;;7.76;100.00
50933;BME280;36921;49.006;9.292;2023-04-07T06:54:37;98612.13;;;8.00;100.00
50933;BME280;36921;49.006;9.292;2023-04-07T06:57:03;98585.34;;;7.77;100.00
50933;BME280;36921;49.006;9.292;2023-04-07T06:59:28;98605.50;;;8.03;100.00
50933;BME280;36921;49.006;9.292;2023-04-07T07:01:53;98592.81;;;7.97;100.00
50933;BME280;36921;49.006;9.292;2023-04-07T07:04:19;98573.56;;;7.78;100.00
50933;BME280;36921;49.006;9.292;2023-04-07T07:06:44;98605.78;;;7.72;100.00
50933;BME280;36921;49.006;9.292;2023-04-07T07:09:09;98599.63;;;7.78;100.00
50933;BME280;36921;49.006;9.292;2023-04-07T07:11:35;98595.78;;;8.02;100.00
50933;BME280;36921;49.006;9.292;2023-04-07T07:14:00;98600.19;;;8.31;100.00
50933;BME280;36921;49.006;9.292;2023-04-07T07:16:26;98603.47;;;8.48;100.00
50933;BME280;36921;49.006;9.292;2023-04-07T07:18:53;98605.50;;;8.46;100.00
50933;BME280;36921;49.006;9.292;2023-04-07T07:21:18;98604.03;;;8.43;100.00
50933;BME280;36921;49.006;9.292;2023-04-07T07:23:44;98607.63;;;8.50;100.00
50933;BME280;36921;49.006;9.292;2023-04-07T07:26:09;98576.41;;;8.63;100.00
50933;BME280;36921;49.006;9.292;2023-04-07T07:28:35;98604.06;;;9.41;100.00
50933;BME280;36921;49.006;9.292;2023-04-07T07:31:08;98600.34;;;11.16;100.00
50933;BME280;36921;49.006;9.292;2023-04-07T07:33:34;98593.63;;;15.21;100.00
50933;BME280;36921;49.006;9.292;2023-04-07T07:35:59;98571.63;;;18.31;76.05
50933;BME280;36921;49.006;9.292;2023-04-07T07:38:26;98588.28;;;22.34;59.27
50933;BME280;36921;49.006;9.292;2023-04-07T07:40:56;98569.50;;;24.62;49.56
50933;BME280;36921;49.006;9.292;2023-04-07T07:43:22;98591.03;;;26.14;44.36
50933;BME280;36921;49.006;9.292;2023-04-07T07:45:47;98586.56;;;26.99;41.12
50933;BME280;36921;49.006;9.292;2023-04-07T07:48:12;98595.78;;;25.72;41.95
50933;BME280;36921;49.006;9.292;2023-04-07T07:50:38;98592.50;;;24.39;45.14
50933;BME280;36921;49.006;9.292;2023-04-07T07:53:03;98604.44;;;22.01;47.56
50933;BME280;36921;49.006;9.292;2023-04-07T07:55:28;98594.31;;;18.59;55.64
50933;BME280;36921;49.006;9.292;2023-04-07T07:57:54;98615.81;;;16.62;61.38
50933;BME280;36921;49.006;9.292;2023-04-07T08:00:20;98608.34;;;14.73;100.00
50933;BME280;36921;49.006;9.292;2023-04-07T08:02:45;98612.84;;;14.07;100.00
50933;BME280;36921;49.006;9.292;2023-04-07T08:05:10;98603.47;;;13.54;100.00
50933;BME280;36921;49.006;9.292;2023-04-07T08:07:47;98614.13;;;13.55;100.00
50933;BME280;36921;49.006;9.292;2023-04-07T08:10:20;98624.19;;;13.55;100.00
50933;BME280;36921;49.006;9.292;2023-04-07T08:12:46;98615.56;;;13.40;100.00
50933;BME280;36921;49.006;9.292;2023-04-07T08:15:12;98619.06;;;13.28;100.00
50933;BME280;36921;49.006;9.292;2023-04-07T08:17:37;98622.75;;;13.71;100.00
50933;BME280;36921;49.006;9.292;2023-04-07T08:20:03;98611.06;;;15.08;97.67
50933;BME280;36921;49.006;9.292;2023-04-07T08:22:29;98599.91;;;19.07;72.68
50933;BME280;36921;49.006;9.292;2023-04-07T08:24:55;98592.03;;;20.87;59.21
50933;BME280;36921;49.006;9.292;2023-04-07T08:27:20;98586.47;;;22.92;51.98
50933;BME280;36921;49.006;9.292;2023-04-07T08:29:57;98606.34;;;22.89;50.31
50933;BME280;36921;49.006;9.292;2023-04-07T08:32:22;98600.00;;;24.19;47.06
50933;BME280;36921;49.006;9.292;2023-04-07T08:34:48;98605.03;;;25.53;42.53
50933;BME280;36921;49.006;9.292;2023-04-07T08:37:13;98586.31;;;26.14;39.72
50933;BME280;36921;49.006;9.292;2023-04-07T08:39:38;98588.78;;;28.48;38.76
50933;BME280;36921;49.006;9.292;2023-04-07T08:42:06;98591.41;;;30.42;34.30
50933;BME280;36921;49.006;9.292;2023-04-07T08:44:31;98592.84;;;29.59;35.53
50933;BME280;36921;49.006;9.292;2023-04-07T08:46:58;98609.97;;;24.58;39.99
50933;BME280;36921;49.006;9.292;2023-04-07T08:49:27;98609.19;;;23.43;43.59
50933;BME280;36921;49.006;9.292;2023-04-07T08:51:54;98618.72;;;20.92;49.12
50933;BME280;36921;49.006;9.292;2023-04-07T08:54:21;98606.09;;;20.75;51.85
50933;BME280;36921;49.006;9.292;2023-04-07T08:56:48;98605.63;;;21.79;49.41
50933;BME280;36921;49.006;9.292;2023-04-07T08:59:16;98602.47;;;21.41;49.52
50933;BME280;36921;49.006;9.292;2023-04-07T09:01:50;98625.22;;;21.67;48.88
50933;BME280;36921;49.006;9.292;2023-04-07T09:04:16;98607.72;;;23.50;46.80
50933;BME280;36921;49.006;9.292;2023-04-07T09:06:42;98606.53;;;25.18;42.96
50933;BME280;36921;49.006;9.292;2023-04-07T09:09:07;98613.50;;;26.76;41.88
50933;BME280;36921;49.006;9.292;2023-04-07T09:11:36;98621.88;;;26.62;40.06
50933;BME280;36921;49.006;9.292;2023-04-07T09:14:01;98620.56;;;27.05;39.17
50933;BME280;36921;49.006;9.292;2023-04-07T09:16:27;98620.63;;;26.18;40.43
50933;BME280;36921;49.006;9.292;2023-04-07T09:18:53;98613.75;;;25.74;40.57
50933;BME280;36921;49.006;9.292;2023-04-07T09:21:18;98628.06;;;23.83;43.77
50933;BME280;36921;49.006;9.292;2023-04-07T09:23:44;98626.59;;;20.32;47.87
50933;BME280;36921;49.006;9.292;2023-04-07T09:28:56;98648.25;;;15.73;67.51
50933;BME280;36921;49.006;9.292;2023-04-07T09:31:22;98644.47;;;16.03;76.62
50933;BME280;36921;49.006;9.292;2023-04-07T09:33:51;98639.78;;;16.43;75.50
50933;BME280;36921;49.006;9.292;2023-04-07T09:36:17;98646.66;;;16.92;74.37
50933;BME280;36921;49.006;9.292;2023-04-07T09:38:44;98640.72;;;17.34;71.59
50933;BME280;36921;49.006;9.292;2023-04-07T09:41:15;98631.53;;;17.40;72.72
50933;BME280;36921;49.006;9.292;2023-04-07T09:43:45;98613.78;;;17.42;68.02
50933;BME280;36921;49.006;9.292;2023-04-07T09:46:15;98645.00;;;17.46;68.46
50933;BME280;36921;49.006;9.292;2023-04-07T09:48:44;98634.41;;;18.70;63.89
50933;BME280;36921;49.006;9.292;2023-04-07T09:51:11;98629.41;;;18.89;62.71
50933;BME280;36921;49.006;9.292;2023-04-07T09:53:50;98627.56;;;22.54;55.75
50933;BME280;36921;49.006;9.292;2023-04-07T09:56:18;98616.78;;;27.23;45.59
50933;BME280;36921;49.006;9.292;2023-04-07T09:58:45;98616.28;;;27.84;40.02
50933;BME280;36921;49.006;9.292;2023-04-07T10:01:12;98617.88;;;27.45;40.25
50933;BME280;36921;49.006;9.292;2023-04-07T10:03:38;98619.38;;;29.18;39.15
50933;BME280;36921;49.006;9.292;2023-04-07T10:06:04;98616.28;;;28.58;37.72
50933;BME280;36921;49.006;9.292;2023-04-07T10:08:36;98623.72;;;27.74;39.74
50933;BME280;36921;49.006;9.292;2023-04-07T10:11:03;98621.16;;;27.47;38.70
50933;BME280;36921;49.006;9.292;2023-04-07T10:13:30;98624.06;;;29.90;37.09
50933;BME280;36921;49.006;9.292;2023-04-07T10:15:56;98614.91;;;27.72;38.90
50933;BME280;36921;49.006;9.292;2023-04-07T10:18:28;98618.75;;;28.51;38.80
50933;BME280;36921;49.006;9.292;2023-04-07T10:20:56;98605.44;;;28.22;37.26
50933;BME280;36921;49.006;9.292;2023-04-07T10:23:39;98615.78;;;26.24;39.07
50933;BME280;36921;49.006;9.292;2023-04-07T10:26:07;98617.09;;;24.78;41.72
50933;BME280;36921;49.006;9.292;2023-04-07T10:28:37;98622.81;;;22.16;45.99
50933;BME280;36921;49.006;9.292;2023-04-07T10:31:04;98626.16;;;20.81;48.02
50933;BME280;36921;49.006;9.292;2023-04-07T10:33:50;98628.63;;;19.31;51.86
50933;BME280;36921;49.006;9.292;2023-04-07T10:36:20;98630.75;;;18.59;54.80
50933;BME280;36921;49.006;9.292;2023-04-07T10:41:37;98623.59;;;19.23;54.00
50933;BME280;36921;49.006;9.292;2023-04-07T10:44:03;98624.72;;;19.22;55.73
50933;BME280;36921;49.006;9.292;2023-04-07T10:49:10;98592.38;;;24.68;44.61
50933;BME280;36921;49.006;9.292;2023-04-07T10:51:36;98598.66;;;29.83;37.17
50933;BME280;36921;49.006;9.292;2023-04-07T10:54:21;98604.31;;;30.55;33.62
50933;BME280;36921;49.006;9.292;2023-04-07T10:59:32;98603.72;;;30.20;34.26
50933;BME280;36921;49.006;9.292;2023-04-07T11:04:43;98620.69;;;22.91;42.29
50933;BME280;36921;49.006;9.292;2023-04-07T11:07:09;98618.53;;;21.89;46.29
50933;BME280;36921;49.006;9.292;2023-04-07T11:09:34;98599.97;;;21.40;48.58
50933;BME280;36921;49.006;9.292;2023-04-07T11:12:00;98613.72;;;21.19;49.49
50933;BME280;36921;49.006;9.292;2023-04-07T11:14:27;98588.44;;;21.17;48.87
50933;BME280;36921;49.006;9.292;2023-04-07T11:16:53;98607.16;;;21.05;51.32
50933;BME280;36921;49.006;9.292;2023-04-07T11:19:18;98590.09;;;20.52;50.72
50933;BME280;36921;49.006;9.292;2023-04-07T11:21:44;98618.72;;;21.07;49.58
50933;BME280;36921;49.006;9.292;2023-04-07T11:24:09;98604.78;;;22.78;47.71
50933;BME280;36921;49.006;9.292;2023-04-07T11:26:39;98575.50;;;27.08;40.82
50933;BME280;36921;49.006;9.292;2023-04-07T11:29:05;98586.44;;;27.67;38.39
50933;BME280;36921;49.006;9.292;2023-04-07T11:31:31;98596.19;;;26.20;38.46
50933;BME280;36921;49.006;9.292;2023-04-07T11:36:34;98606.88;;;25.58;40.90
50933;BME280;36921;49.006;9.292;2023-04-07T11:39:00;98586.69;;;26.94;39.36
50933;BME280;36921;49.006;9.292;2023-04-07T11:41:28;98594.13;;;25.57;39.35
50933;BME280;36921;49.006;9.292;2023-04-07T11:44:08;98572.25;;;24.62;40.44
50933;BME280;36921;49.006;9.292;2023-04-07T11:46:35;98598.34;;;24.18;40.43
50933;BME280;36921;49.006;9.292;2023-04-07T11:49:11;98621.44;;;22.23;43.48
50933;BME280;36921;49.006;9.292;2023-04-07T11:51:37;98610.63;;;21.77;47.29
50933;BME280;36921;49.006;9.292;2023-04-07T11:54:02;98605.97;;;21.67;45.82
50933;BME280;36921;49.006;9.292;2023-04-07T11:56:28;98601.31;;;22.18;46.11
50933;BME280;36921;49.006;9.292;2023-04-07T11:58:54;98621.97;;;21.35;47.68
50933;BME280;36921;49.006;9.292;2023-04-07T12:01:21;98618.06;;;20.23;49.92
50933;BME280;36921;49.006;9.292;2023-04-07T12:04:02;98601.28;;;19.52;52.04
50933;BME280;36921;49.006;9.292;2023-04-07T12:06:29;98620.72;;;19.40;52.74
50933;BME280;36921;49.006;9.292;2023-04-07T12:08:57;98621.38;;;19.15;53.11
50933;BME280;36921;49.006;9.292;2023-04-07T12:11:22;98626.09;;;18.87;54.27
50933;BME280;36921;49.006;9.292;2023-04-07T12:13:49;98591.34;;;18.33;55.25
50933;BME280;36921;49.006;9.292;2023-04-07T12:16:14;98628.34;;;18.36;55.91
50933;BME280;36921;49.006;9.292;2023-04-07T12:18:39;98600.53;;;17.95;56.08
50933;BME280;36921;49.006;9.292;2023-04-07T12:21:05;98624.97;;;17.80;56.54
50933;BME280;36921;49.006;9.292;2023-04-07T12:23:31;98620.84;;;17.38;58.65
50933;BME280;36921;49.006;9.292;2023-04-07T12:25:56;98626.69;;;17.47;59.38
50933;BME280;36921;49.006;9.292;2023-04-07T12:28:21;98631.31;;;17.24;61.21
50933;BME280;36921;49.006;9.292;2023-04-07T12:30:46;98633.63;;;16.82;62.73
50933;BME280;36921;49.006;9.292;2023-04-07T12:33:13;98632.59;;;16.54;63.33
50933;BME280;36921;49.006;9.292;2023-04-07T12:35:38;98621.19;;;16.12;64.45
50933;BME280;36921;49.006;9.292;2023-04-07T12:38:04;98630.25;;;15.48;66.95
50933;BME280;36921;49.006;9.292;2023-04-07T12:40:30;98644.09;;;15.35;69.21
50933;BME280;36921;49.006;9.292;2023-04-07T12:42:56;98639.00;;;15.39;72.42
50933;BME280;36921;49.006;9.292;2023-04-07T12:45:25;98629.78;;;15.04;74.63
50933;BME280;36921;49.006;9.292;2023-04-07T12:47:50;98627.75;;;15.23;80.22
50933;BME280;36921;49.006;9.292;2023-04-07T12:50:15;98621.97;;;14.96;74.69
50933;BME280;36921;49.006;9.292;2023-04-07T12:52:41;98625.03;;;15.11;76.48
50933;BME280;36921;49.006;9.292;2023-04-07T12:55:07;98626.66;;;15.48;80.44
50933;BME280;36921;49.006;9.292;2023-04-07T12:57:33;98628.88;;;15.74;82.52
50933;BME280;36921;49.006;9.292;2023-04-07T12:59:58;98624.19;;;15.70;76.18
50933;BME280;36921;49.006;9.292;2023-04-07T13:02:23;98624.72;;;15.84;75.14
50933;BME280;36921;49.006;9.292;2023-04-07T13:04:48;98640.78;;;16.09;76.18
50933;BME280;36921;49.006;9.292;2023-04-07T13:07:14;98614.41;;;16.14;75.31
50933;BME280;36921;49.006;9.292;2023-04-07T13:09:40;98633.16;;;16.39;72.30
50933;BME280;36921;49.006;9.292;2023-04-07T13:12:11;98616.63;;;16.63;72.89
50933;BME280;36921;49.006;9.292;2023-04-07T13:14:40;98627.38;;;16.53;67.83
50933;BME280;36921;49.006;9.292;2023-04-07T13:17:07;98631.69;;;16.65;69.43
50933;BME280;36921;49.006;9.292;2023-04-07T13:19:33;98610.66;;;16.66;71.79
50933;BME280;36921;49.006;9.292;2023-04-07T13:21:58;98634.47;;;17.16;68.88
50933;BME280;36921;49.006;9.292;2023-04-07T13:24:24;98623.66;;;16.88;65.90
50933;BME280;36921;49.006;9.292;2023-04-07T13:26:50;98628.34;;;17.09;66.09